Mike Weisend — WDF7611 — position and weather

sailwx.info

Track history (hours):
 
Tides and Currents Weather Stations Pressure Air Temp Water Temp Dewpoint Dewpoint Depression Visibility Wind Speed Wind Dir Waves Ship Positions

Mike Weisend

Owner: AEP River Operations LLC, Chesterfield, MO. More information available from US FCC via Universal Licensing System and Coast Guard Vessel Documentation Center.

Last reported at 2015-Aug-09 17:33 UTC. Time now 2015-Sep-05 03:47 UTC.
Position N 38°57' W 084°51'.
Warning: this ship's position is 26 days out of date.

Length 54 m; draft 3 m.

Type: Towing. MMSI: 367486280.

Date/timePositionNaut miles runAvg speedWind from/ knotsBaromVisibWave heightAir tempDewpointWater temp
2015-Aug-09 17:33N 38°57' W 084°51'5 3.5
2015-Aug-09 16:11N 39°01' W 084°52'5 3.0
2015-Aug-09 14:21N 39°06' W 084°49'2 2.8
2015-Aug-09 13:31N 39°08' W 084°46'0 0.0
2015-Aug-09 12:33N 39°08' W 084°46'0 0.0
2015-Aug-09 11:31N 39°08' W 084°46'0 0.0
2015-Aug-09 10:33N 39°08' W 084°46'0 0.0
2015-Aug-09 09:32N 39°08' W 084°46'2 2.3
2015-Aug-09 08:33N 39°08' W 084°44'4 3.9
2015-Aug-09 07:32N 39°06' W 084°40'4 3.8
2015-Aug-09 06:33N 39°05' W 084°35'1 0.5
2015-Aug-09 05:32N 39°05' W 084°35'1 1.4
2015-Aug-09 04:33N 39°06' W 084°33'5 4.8
2015-Aug-09 03:33N 39°07' W 084°27'4 3.9
2015-Aug-09 02:32N 39°03' W 084°26'3 2.8
2015-Aug-09 01:33N 39°03' W 084°22'3 3.2
2015-Aug-09 00:33N 39°01' W 084°19'4 4.1
2015-Aug-08 23:33N 38°57' W 084°17'4 4.3
2015-Aug-08 22:33N 38°53' W 084°14'4 4.3
2015-Aug-08 21:33N 38°49' W 084°14'3 2.6
2015-Aug-08 20:22N 38°48' W 084°10'2 2.2
2015-Aug-08 19:30N 38°47' W 084°08'3 2.7
2015-Aug-08 18:32N 38°46' W 084°05'1 0.3
2015-Aug-08 14:25N 38°46' W 084°03'4 4.4
2015-Aug-08 13:33N 38°47' W 084°08'2 2.4
2015-Aug-08 12:31N 38°48' W 084°11'2 2.1
2015-Aug-08 11:32N 38°49' W 084°13'4 4.4
2015-Aug-08 10:33N 38°53' W 084°14'5 4.6
2015-Aug-08 09:33N 38°57' W 084°17'5 4.6
2015-Aug-08 08:33N 39°01' W 084°19'5 4.8
2015-Aug-08 07:33N 39°03' W 084°25'5 4.6
2015-Aug-08 06:33N 39°07' W 084°27'4 4.1
2015-Aug-08 05:33N 39°06' W 084°32'4 4.4
2015-Aug-08 04:33N 39°04' W 084°38'3 3.3
2015-Aug-08 03:33N 39°06' W 084°41'0 0.0
2015-Aug-08 02:32N 39°06' W 084°41'1 1.1
2015-Aug-08 01:32N 39°07' W 084°42'3 3.3
2015-Aug-08 00:33N 39°08' W 084°46'5 4.2
2015-Aug-07 23:16N 39°04' W 084°52'7 3.5
2015-Aug-07 21:13N 38°57' W 084°50'  
Track history (hours):
 
Tides and Currents Weather Stations Pressure Air Temp Water Temp Dewpoint Dewpoint Depression Visibility Wind Speed Wind Dir Waves Ship Positions

Mike Weisend

Owner: AEP River Operations LLC, Chesterfield, MO. More information available from US FCC via Universal Licensing System and Coast Guard Vessel Documentation Center.

Last reported at 2015-Aug-09 17:33 UTC. Time now 2015-Sep-05 03:47 UTC.
Position N 38°57' W 084°51'.
Warning: this ship's position is 26 days out of date.

Length 54 m; draft 3 m.

Type: Towing. MMSI: 367486280.

Date/timePositionNaut miles runAvg speedWind from/ knotsBaromVisibWave heightAir tempDewpointWater temp
2015-Aug-09 17:33N 38°57' W 084°51'5 3.5
2015-Aug-09 16:11N 39°01' W 084°52'5 3.0
2015-Aug-09 14:21N 39°06' W 084°49'2 2.8
2015-Aug-09 13:31N 39°08' W 084°46'0 0.0
2015-Aug-09 12:33N 39°08' W 084°46'0 0.0
2015-Aug-09 11:31N 39°08' W 084°46'0 0.0
2015-Aug-09 10:33N 39°08' W 084°46'0 0.0
2015-Aug-09 09:32N 39°08' W 084°46'2 2.3
2015-Aug-09 08:33N 39°08' W 084°44'4 3.9
2015-Aug-09 07:32N 39°06' W 084°40'4 3.8
2015-Aug-09 06:33N 39°05' W 084°35'1 0.5
2015-Aug-09 05:32N 39°05' W 084°35'1 1.4
2015-Aug-09 04:33N 39°06' W 084°33'5 4.8
2015-Aug-09 03:33N 39°07' W 084°27'4 3.9
2015-Aug-09 02:32N 39°03' W 084°26'3 2.8
2015-Aug-09 01:33N 39°03' W 084°22'3 3.2
2015-Aug-09 00:33N 39°01' W 084°19'4 4.1
2015-Aug-08 23:33N 38°57' W 084°17'4 4.3
2015-Aug-08 22:33N 38°53' W 084°14'4 4.3
2015-Aug-08 21:33N 38°49' W 084°14'3 2.6
2015-Aug-08 20:22N 38°48' W 084°10'2 2.2
2015-Aug-08 19:30N 38°47' W 084°08'3 2.7
2015-Aug-08 18:32N 38°46' W 084°05'1 0.3
2015-Aug-08 14:25N 38°46' W 084°03'4 4.4
2015-Aug-08 13:33N 38°47' W 084°08'2 2.4
2015-Aug-08 12:31N 38°48' W 084°11'2 2.1
2015-Aug-08 11:32N 38°49' W 084°13'4 4.4
2015-Aug-08 10:33N 38°53' W 084°14'5 4.6
2015-Aug-08 09:33N 38°57' W 084°17'5 4.6
2015-Aug-08 08:33N 39°01' W 084°19'5 4.8
2015-Aug-08 07:33N 39°03' W 084°25'5 4.6
2015-Aug-08 06:33N 39°07' W 084°27'4 4.1
2015-Aug-08 05:33N 39°06' W 084°32'4 4.4
2015-Aug-08 04:33N 39°04' W 084°38'3 3.3
2015-Aug-08 03:33N 39°06' W 084°41'0 0.0
2015-Aug-08 02:32N 39°06' W 084°41'1 1.1
2015-Aug-08 01:32N 39°07' W 084°42'3 3.3
2015-Aug-08 00:33N 39°08' W 084°46'5 4.2
2015-Aug-07 23:16N 39°04' W 084°52'7 3.5
2015-Aug-07 21:13N 38°57' W 084°50'  

Dump ship's entire track history